sensor_id;sensor_type;location;lat;lon;timestamp;pressure;altitude;pressure_sealevel;temperature;humidity
6132;BME280;3097;42.692;23.278;2023-05-20T00:00:05;95324.91;;;13.59;95.92
6132;BME280;3097;42.692;23.278;2023-05-20T00:02:32;95317.28;;;13.52;95.75
6132;BME280;3097;42.692;23.278;2023-05-20T00:04:57;95320.88;;;13.51;95.73
6132;BME280;3097;42.692;23.278;2023-05-20T00:07:22;95323.03;;;13.42;96.12
6132;BME280;3097;42.692;23.278;2023-05-20T00:09:48;95322.56;;;13.45;95.78
6132;BME280;3097;42.692;23.278;2023-05-20T00:12:13;95319.59;;;13.53;95.60
6132;BME280;3097;42.692;23.278;2023-05-20T00:14:39;95316.94;;;13.48;95.31
6132;BME280;3097;42.692;23.278;2023-05-20T00:17:04;95308.50;;;13.41;95.50
6132;BME280;3097;42.692;23.278;2023-05-20T00:19:29;95308.41;;;13.36;96.12
6132;BME280;3097;42.692;23.278;2023-05-20T00:21:55;95309.97;;;13.37;95.09
6132;BME280;3097;42.692;23.278;2023-05-20T00:24:22;95311.91;;;13.30;95.57
6132;BME280;3097;42.692;23.278;2023-05-20T00:26:48;95315.94;;;13.26;96.03
6132;BME280;3097;42.692;23.278;2023-05-20T00:29:13;95307.06;;;13.22;96.78
6132;BME280;3097;42.692;23.278;2023-05-20T00:31:39;95287.91;;;13.11;96.95
6132;BME280;3097;42.692;23.278;2023-05-20T00:34:04;95305.50;;;13.21;97.09
6132;BME280;3097;42.692;23.278;2023-05-20T00:36:29;95288.91;;;13.10;97.05
6132;BME280;3097;42.692;23.278;2023-05-20T00:38:55;95301.88;;;13.22;96.98
6132;BME280;3097;42.692;23.278;2023-05-20T00:41:21;95307.50;;;13.19;96.80
6132;BME280;3097;42.692;23.278;2023-05-20T00:43:46;95305.59;;;13.14;96.77
6132;BME280;3097;42.692;23.278;2023-05-20T00:46:12;95292.41;;;13.16;96.61
6132;BME280;3097;42.692;23.278;2023-05-20T00:48:42;95291.28;;;13.12;96.80
6132;BME280;3097;42.692;23.278;2023-05-20T00:51:09;95282.94;;;13.10;97.01
6132;BME280;3097;42.692;23.278;2023-05-20T00:53:35;95287.72;;;13.13;97.17
6132;BME280;3097;42.692;23.278;2023-05-20T00:56:02;95286.09;;;13.12;96.67
6132;BME280;3097;42.692;23.278;2023-05-20T00:58:28;95282.50;;;13.01;97.14
6132;BME280;3097;42.692;23.278;2023-05-20T01:00:54;95281.47;;;13.02;97.04
6132;BME280;3097;42.692;23.278;2023-05-20T01:03:19;95266.84;;;12.96;97.05
6132;BME280;3097;42.692;23.278;2023-05-20T01:05:45;95278.09;;;13.02;97.30
6132;BME280;3097;42.692;23.278;2023-05-20T01:08:11;95271.13;;;13.02;97.05
6132;BME280;3097;42.692;23.278;2023-05-20T01:10:41;95283.41;;;12.95;97.28
6132;BME280;3097;42.692;23.278;2023-05-20T01:13:15;95275.53;;;12.90;97.60
6132;BME280;3097;42.692;23.278;2023-05-20T01:15:43;95288.34;;;12.97;97.46
6132;BME280;3097;42.692;23.278;2023-05-20T01:18:13;95283.97;;;12.97;97.23
6132;BME280;3097;42.692;23.278;2023-05-20T01:20:43;95289.59;;;12.94;96.78
6132;BME280;3097;42.692;23.278;2023-05-20T01:23:11;95297.47;;;12.88;97.46
6132;BME280;3097;42.692;23.278;2023-05-20T01:25:37;95266.97;;;12.66;97.03
6132;BME280;3097;42.692;23.278;2023-05-20T01:28:02;95291.59;;;12.80;97.76
6132;BME280;3097;42.692;23.278;2023-05-20T01:30:32;95289.47;;;12.77;97.67
6132;BME280;3097;42.692;23.278;2023-05-20T01:33:03;95284.31;;;12.77;97.80
6132;BME280;3097;42.692;23.278;2023-05-20T01:35:29;95275.88;;;12.70;97.35
6132;BME280;3097;42.692;23.278;2023-05-20T01:37:56;95280.81;;;12.72;97.60
6132;BME280;3097;42.692;23.278;2023-05-20T01:40:23;95287.34;;;12.74;97.65
6132;BME280;3097;42.692;23.278;2023-05-20T01:42:50;95283.63;;;12.70;97.78
6132;BME280;3097;42.692;23.278;2023-05-20T01:45:19;95294.09;;;12.75;98.02
6132;BME280;3097;42.692;23.278;2023-05-20T01:47:45;95283.75;;;12.75;97.66
6132;BME280;3097;42.692;23.278;2023-05-20T01:50:10;95286.22;;;12.70;97.84
6132;BME280;3097;42.692;23.278;2023-05-20T01:52:36;95285.19;;;12.71;97.91
6132;BME280;3097;42.692;23.278;2023-05-20T01:55:01;95281.25;;;12.69;98.01
6132;BME280;3097;42.692;23.278;2023-05-20T01:57:26;95286.88;;;12.66;98.06
6132;BME280;3097;42.692;23.278;2023-05-20T01:59:52;95284.97;;;12.61;97.99
6132;BME280;3097;42.692;23.278;2023-05-20T02:02:17;95285.50;;;12.63;98.09
6132;BME280;3097;42.692;23.278;2023-05-20T02:04:49;95280.91;;;12.65;97.12
6132;BME280;3097;42.692;23.278;2023-05-20T02:07:15;95270.00;;;12.52;97.16
6132;BME280;3097;42.692;23.278;2023-05-20T02:09:41;95272.25;;;12.60;97.24
6132;BME280;3097;42.692;23.278;2023-05-20T02:12:07;95251.88;;;12.40;97.37
6132;BME280;3097;42.692;23.278;2023-05-20T02:14:32;95262.78;;;12.42;97.80
6132;BME280;3097;42.692;23.278;2023-05-20T02:16:58;95249.63;;;12.32;98.29
6132;BME280;3097;42.692;23.278;2023-05-20T02:19:23;95266.03;;;12.37;98.42
6132;BME280;3097;42.692;23.278;2023-05-20T02:21:50;95268.94;;;12.41;98.04
6132;BME280;3097;42.692;23.278;2023-05-20T02:24:16;95273.13;;;12.42;98.56
6132;BME280;3097;42.692;23.278;2023-05-20T02:26:41;95273.69;;;12.44;97.71
6132;BME280;3097;42.692;23.278;2023-05-20T02:29:08;95237.47;;;12.21;98.16
6132;BME280;3097;42.692;23.278;2023-05-20T02:31:34;95267.16;;;12.41;98.03
6132;BME280;3097;42.692;23.278;2023-05-20T02:34:00;95242.19;;;12.24;98.07
6132;BME280;3097;42.692;23.278;2023-05-20T02:36:25;95266.84;;;12.38;97.77
6132;BME280;3097;42.692;23.278;2023-05-20T02:38:52;95269.06;;;12.34;98.26
6132;BME280;3097;42.692;23.278;2023-05-20T02:41:21;95267.47;;;12.33;97.72
6132;BME280;3097;42.692;23.278;2023-05-20T02:43:46;95272.31;;;12.30;98.14
6132;BME280;3097;42.692;23.278;2023-05-20T02:46:12;95266.56;;;12.28;98.17
6132;BME280;3097;42.692;23.278;2023-05-20T02:48:37;95269.84;;;12.23;98.08
6132;BME280;3097;42.692;23.278;2023-05-20T02:51:04;95271.63;;;12.23;97.67
6132;BME280;3097;42.692;23.278;2023-05-20T02:53:29;95265.56;;;12.17;97.24
6132;BME280;3097;42.692;23.278;2023-05-20T02:55:56;95262.97;;;12.17;97.94
6132;BME280;3097;42.692;23.278;2023-05-20T02:58:21;95223.22;;;11.88;97.77
6132;BME280;3097;42.692;23.278;2023-05-20T03:00:51;95277.69;;;12.17;97.65
6132;BME280;3097;42.692;23.278;2023-05-20T03:03:16;95270.03;;;12.10;97.65
6132;BME280;3097;42.692;23.278;2023-05-20T03:05:42;95271.59;;;12.11;97.77
6132;BME280;3097;42.692;23.278;2023-05-20T03:08:10;95161.91;;;11.36;98.04
6132;BME280;3097;42.692;23.278;2023-05-20T03:10:39;95248.03;;;11.89;98.22
6132;BME280;3097;42.692;23.278;2023-05-20T03:13:07;95286.75;;;12.08;97.83
6132;BME280;3097;42.692;23.278;2023-05-20T03:15:33;95291.47;;;12.11;97.86
6132;BME280;3097;42.692;23.278;2023-05-20T03:18:00;95293.97;;;12.17;97.30
6132;BME280;3097;42.692;23.278;2023-05-20T03:20:25;95289.75;;;12.05;97.44
6132;BME280;3097;42.692;23.278;2023-05-20T03:22:53;95297.66;;;12.10;97.60
6132;BME280;3097;42.692;23.278;2023-05-20T03:25:18;95292.94;;;12.07;98.04
6132;BME280;3097;42.692;23.278;2023-05-20T03:27:44;95298.66;;;12.09;98.08
6132;BME280;3097;42.692;23.278;2023-05-20T03:30:11;95278.72;;;11.97;98.35
6132;BME280;3097;42.692;23.278;2023-05-20T03:32:36;95292.94;;;12.07;98.00
6132;BME280;3097;42.692;23.278;2023-05-20T03:35:02;95289.34;;;12.08;98.86
6132;BME280;3097;42.692;23.278;2023-05-20T03:37:27;95291.34;;;12.06;99.20
6132;BME280;3097;42.692;23.278;2023-05-20T03:39:53;95294.63;;;12.13;99.51
6132;BME280;3097;42.692;23.278;2023-05-20T03:42:18;95292.03;;;12.13;99.16
6132;BME280;3097;42.692;23.278;2023-05-20T03:44:44;95292.63;;;12.15;98.94
6132;BME280;3097;42.692;23.278;2023-05-20T03:47:09;95297.47;;;12.23;98.42
6132;BME280;3097;42.692;23.278;2023-05-20T03:49:35;95284.75;;;12.10;99.21
6132;BME280;3097;42.692;23.278;2023-05-20T03:52:00;95313.38;;;12.38;99.06
6132;BME280;3097;42.692;23.278;2023-05-20T03:54:27;95310.78;;;12.38;99.12
6132;BME280;3097;42.692;23.278;2023-05-20T03:56:54;95304.84;;;12.49;98.81
6132;BME280;3097;42.692;23.278;2023-05-20T03:59:20;95296.22;;;12.55;98.59
6132;BME280;3097;42.692;23.278;2023-05-20T04:01:46;95308.81;;;12.87;98.03
6132;BME280;3097;42.692;23.278;2023-05-20T04:04:12;95309.88;;;13.21;96.22
6132;BME280;3097;42.692;23.278;2023-05-20T04:06:37;95316.00;;;13.54;94.21
6132;BME280;3097;42.692;23.278;2023-05-20T04:09:03;95321.34;;;13.88;92.38
6132;BME280;3097;42.692;23.278;2023-05-20T04:11:28;95327.25;;;14.28;90.27
6132;BME280;3097;42.692;23.278;2023-05-20T04:13:54;95318.41;;;14.69;88.34
6132;BME280;3097;42.692;23.278;2023-05-20T04:16:19;95330.25;;;15.16;85.76
6132;BME280;3097;42.692;23.278;2023-05-20T04:18:45;95311.59;;;15.57;84.16
6132;BME280;3097;42.692;23.278;2023-05-20T04:21:12;95325.81;;;16.15;81.55
6132;BME280;3097;42.692;23.278;2023-05-20T04:23:37;95331.03;;;16.69;79.16
6132;BME280;3097;42.692;23.278;2023-05-20T04:26:03;95329.59;;;17.20;77.25
6132;BME280;3097;42.692;23.278;2023-05-20T04:28:28;95332.25;;;17.77;75.67
6132;BME280;3097;42.692;23.278;2023-05-20T04:30:59;95325.94;;;18.45;73.04
6132;BME280;3097;42.692;23.278;2023-05-20T04:33:28;95321.81;;;19.15;70.76
6132;BME280;3097;42.692;23.278;2023-05-20T04:35:53;95319.84;;;19.77;67.38
6132;BME280;3097;42.692;23.278;2023-05-20T04:38:25;95308.88;;;20.24;65.41
6132;BME280;3097;42.692;23.278;2023-05-20T04:40:55;95327.50;;;21.00;63.39
6132;BME280;3097;42.692;23.278;2023-05-20T04:43:24;95334.50;;;21.68;61.40
6132;BME280;3097;42.692;23.278;2023-05-20T04:45:57;95311.03;;;22.19;58.75
6132;BME280;3097;42.692;23.278;2023-05-20T04:48:22;95331.63;;;22.87;56.88
6132;BME280;3097;42.692;23.278;2023-05-20T04:50:49;95327.50;;;23.45;54.91
6132;BME280;3097;42.692;23.278;2023-05-20T04:53:15;95324.34;;;23.89;53.65
6132;BME280;3097;42.692;23.278;2023-05-20T04:55:41;95331.94;;;24.54;52.50
6132;BME280;3097;42.692;23.278;2023-05-20T04:58:08;95306.03;;;25.15;51.37
6132;BME280;3097;42.692;23.278;2023-05-20T05:00:48;95299.66;;;25.77;49.24
6132;BME280;3097;42.692;23.278;2023-05-20T05:03:14;95302.72;;;26.28;48.13
6132;BME280;3097;42.692;23.278;2023-05-20T05:05:40;95313.78;;;26.64;47.19
6132;BME280;3097;42.692;23.278;2023-05-20T05:08:07;95318.28;;;26.81;47.55
6132;BME280;3097;42.692;23.278;2023-05-20T05:10:35;95296.44;;;27.18;47.07
6132;BME280;3097;42.692;23.278;2023-05-20T05:13:01;95314.66;;;28.04;44.67
6132;BME280;3097;42.692;23.278;2023-05-20T05:15:27;95315.03;;;28.65;43.70
6132;BME280;3097;42.692;23.278;2023-05-20T05:17:54;95318.44;;;29.40;41.97
6132;BME280;3097;42.692;23.278;2023-05-20T05:20:26;95293.13;;;30.04;40.17
6132;BME280;3097;42.692;23.278;2023-05-20T05:22:51;95310.72;;;30.20;37.83
6132;BME280;3097;42.692;23.278;2023-05-20T05:25:16;95312.25;;;29.48;39.38
6132;BME280;3097;42.692;23.278;2023-05-20T05:27:42;95311.84;;;29.95;39.45
6132;BME280;3097;42.692;23.278;2023-05-20T05:30:09;95307.34;;;30.60;39.21
6132;BME280;3097;42.692;23.278;2023-05-20T05:32:35;95301.09;;;31.24;39.25
6132;BME280;3097;42.692;23.278;2023-05-20T05:35:01;95284.16;;;31.95;38.25
6132;BME280;3097;42.692;23.278;2023-05-20T05:37:27;95286.91;;;32.68;36.62
6132;BME280;3097;42.692;23.278;2023-05-20T05:39:52;95295.41;;;33.16;35.78
6132;BME280;3097;42.692;23.278;2023-05-20T05:42:18;95293.84;;;33.57;35.32
6132;BME280;3097;42.692;23.278;2023-05-20T05:44:43;95297.28;;;34.06;33.41
6132;BME280;3097;42.692;23.278;2023-05-20T05:47:09;95300.91;;;34.17;31.34
6132;BME280;3097;42.692;23.278;2023-05-20T05:49:35;95293.50;;;33.81;31.60
6132;BME280;3097;42.692;23.278;2023-05-20T05:52:00;95300.19;;;34.21;33.23
6132;BME280;3097;42.692;23.278;2023-05-20T05:54:25;95280.44;;;34.02;31.73
6132;BME280;3097;42.692;23.278;2023-05-20T05:56:51;95290.00;;;34.03;30.99
6132;BME280;3097;42.692;23.278;2023-05-20T05:59:18;95286.66;;;33.84;32.43
6132;BME280;3097;42.692;23.278;2023-05-20T06:01:43;95289.44;;;32.26;32.22
6132;BME280;3097;42.692;23.278;2023-05-20T06:04:09;95274.09;;;31.88;33.13
6132;BME280;3097;42.692;23.278;2023-05-20T06:06:34;95237.63;;;31.13;33.15
6132;BME280;3097;42.692;23.278;2023-05-20T06:09:00;95292.59;;;31.81;35.08
6132;BME280;3097;42.692;23.278;2023-05-20T06:11:26;95279.91;;;32.25;34.15
6132;BME280;3097;42.692;23.278;2023-05-20T06:13:52;95277.72;;;32.31;34.17
6132;BME280;3097;42.692;23.278;2023-05-20T06:16:17;95256.06;;;32.93;33.63
6132;BME280;3097;42.692;23.278;2023-05-20T06:18:45;95283.59;;;33.36;31.82
6132;BME280;3097;42.692;23.278;2023-05-20T06:21:11;95262.00;;;32.45;31.32
6132;BME280;3097;42.692;23.278;2023-05-20T06:23:36;95276.22;;;32.68;33.43
6132;BME280;3097;42.692;23.278;2023-05-20T06:26:02;95277.00;;;32.69;34.72
6132;BME280;3097;42.692;23.278;2023-05-20T06:28:28;95275.72;;;31.92;33.60
6132;BME280;3097;42.692;23.278;2023-05-20T06:30:54;95263.50;;;31.13;35.67
6132;BME280;3097;42.692;23.278;2023-05-20T06:33:22;95272.34;;;30.73;37.12
6132;BME280;3097;42.692;23.278;2023-05-20T06:35:59;95263.38;;;30.26;36.14
6132;BME280;3097;42.692;23.278;2023-05-20T06:38:26;95211.06;;;29.41;36.72
6132;BME280;3097;42.692;23.278;2023-05-20T06:40:51;95266.09;;;28.75;38.24
6132;BME280;3097;42.692;23.278;2023-05-20T06:43:17;95262.53;;;27.50;39.91
6132;BME280;3097;42.692;23.278;2023-05-20T06:45:43;95261.84;;;27.23;40.76
6132;BME280;3097;42.692;23.278;2023-05-20T06:48:09;95247.66;;;26.64;41.10
6132;BME280;3097;42.692;23.278;2023-05-20T06:50:35;95250.94;;;26.61;44.63
6132;BME280;3097;42.692;23.278;2023-05-20T06:53:01;95252.50;;;26.28;43.72
6132;BME280;3097;42.692;23.278;2023-05-20T06:55:26;95260.44;;;26.45;44.64
6132;BME280;3097;42.692;23.278;2023-05-20T06:57:52;95266.34;;;26.50;42.68
6132;BME280;3097;42.692;23.278;2023-05-20T07:00:17;95262.56;;;26.00;43.45
6132;BME280;3097;42.692;23.278;2023-05-20T07:02:43;95269.34;;;25.44;43.67
6132;BME280;3097;42.692;23.278;2023-05-20T07:05:09;95245.31;;;25.15;46.25
6132;BME280;3097;42.692;23.278;2023-05-20T07:07:34;95271.69;;;25.45;45.43
6132;BME280;3097;42.692;23.278;2023-05-20T07:10:00;95256.50;;;25.51;45.08
6132;BME280;3097;42.692;23.278;2023-05-20T07:12:25;95255.22;;;25.88;46.85
6132;BME280;3097;42.692;23.278;2023-05-20T07:14:51;95224.47;;;26.01;45.79
6132;BME280;3097;42.692;23.278;2023-05-20T07:17:16;95226.97;;;26.32;41.64
6132;BME280;3097;42.692;23.278;2023-05-20T07:19:41;95222.16;;;26.08;41.98
6132;BME280;3097;42.692;23.278;2023-05-20T07:22:07;95266.91;;;25.48;41.65
6132;BME280;3097;42.692;23.278;2023-05-20T07:24:33;95257.38;;;25.38;43.20
6132;BME280;3097;42.692;23.278;2023-05-20T07:26:58;95252.94;;;25.56;45.26
6132;BME280;3097;42.692;23.278;2023-05-20T07:29:25;95246.34;;;25.84;43.84
6132;BME280;3097;42.692;23.278;2023-05-20T07:31:50;95244.97;;;26.04;43.17
6132;BME280;3097;42.692;23.278;2023-05-20T07:34:16;95249.34;;;26.08;41.26
6132;BME280;3097;42.692;23.278;2023-05-20T07:36:41;95252.50;;;26.36;44.98
6132;BME280;3097;42.692;23.278;2023-05-20T07:39:08;95250.63;;;26.28;42.67
6132;BME280;3097;42.692;23.278;2023-05-20T07:41:35;95266.41;;;26.02;41.36
6132;BME280;3097;42.692;23.278;2023-05-20T07:44:03;95260.25;;;26.15;43.31
6132;BME280;3097;42.692;23.278;2023-05-20T07:46:28;95251.84;;;26.74;45.83
6132;BME280;3097;42.692;23.278;2023-05-20T07:48:55;95247.63;;;26.73;41.95
6132;BME280;3097;42.692;23.278;2023-05-20T07:51:20;95234.84;;;26.92;40.38
6132;BME280;3097;42.692;23.278;2023-05-20T07:53:46;95233.00;;;27.30;46.43
6132;BME280;3097;42.692;23.278;2023-05-20T07:56:11;95222.16;;;27.15;40.07
6132;BME280;3097;42.692;23.278;2023-05-20T07:58:40;95236.91;;;27.33;39.76
6132;BME280;3097;42.692;23.278;2023-05-20T08:01:05;95231.34;;;27.17;39.66
6132;BME280;3097;42.692;23.278;2023-05-20T08:03:31;95223.75;;;27.07;39.41
6132;BME280;3097;42.692;23.278;2023-05-20T08:05:57;95245.56;;;27.04;40.29
6132;BME280;3097;42.692;23.278;2023-05-20T08:08:23;95243.31;;;26.42;40.25
6132;BME280;3097;42.692;23.278;2023-05-20T08:10:50;95214.09;;;26.30;41.43
6132;BME280;3097;42.692;23.278;2023-05-20T08:13:15;95230.88;;;26.51;39.46
6132;BME280;3097;42.692;23.278;2023-05-20T08:15:40;95196.97;;;25.93;41.20
6132;BME280;3097;42.692;23.278;2023-05-20T08:18:06;95232.84;;;25.94;42.09
6132;BME280;3097;42.692;23.278;2023-05-20T08:20:31;95241.09;;;25.93;42.58
6132;BME280;3097;42.692;23.278;2023-05-20T08:22:57;95224.94;;;25.86;41.43
6132;BME280;3097;42.692;23.278;2023-05-20T08:25:22;95215.66;;;25.09;43.09
6132;BME280;3097;42.692;23.278;2023-05-20T08:27:50;95244.03;;;24.81;44.51
6132;BME280;3097;42.692;23.278;2023-05-20T08:30:15;95244.16;;;24.76;45.64
6132;BME280;3097;42.692;23.278;2023-05-20T08:32:41;95232.03;;;24.97;46.04
6132;BME280;3097;42.692;23.278;2023-05-20T08:35:06;95232.31;;;25.18;44.37
6132;BME280;3097;42.692;23.278;2023-05-20T08:37:32;95233.78;;;25.02;44.11
6132;BME280;3097;42.692;23.278;2023-05-20T08:39:57;95201.38;;;24.79;44.49
6132;BME280;3097;42.692;23.278;2023-05-20T08:42:23;95232.72;;;25.03;44.20
6132;BME280;3097;42.692;23.278;2023-05-20T08:44:51;95213.28;;;24.99;44.59
6132;BME280;3097;42.692;23.278;2023-05-20T08:47:18;95234.91;;;25.10;44.42
6132;BME280;3097;42.692;23.278;2023-05-20T08:49:45;95233.34;;;24.55;44.32
6132;BME280;3097;42.692;23.278;2023-05-20T08:52:11;95239.88;;;23.86;45.98
6132;BME280;3097;42.692;23.278;2023-05-20T08:54:45;95235.72;;;23.58;47.75
6132;BME280;3097;42.692;23.278;2023-05-20T08:57:29;95239.47;;;23.24;48.16
6132;BME280;3097;42.692;23.278;2023-05-20T08:59:58;95231.63;;;23.51;48.06
6132;BME280;3097;42.692;23.278;2023-05-20T09:02:24;95234.19;;;23.92;48.39
6132;BME280;3097;42.692;23.278;2023-05-20T09:04:49;95224.28;;;24.25;47.51
6132;BME280;3097;42.692;23.278;2023-05-20T09:07:28;95221.22;;;24.54;46.46
6132;BME280;3097;42.692;23.278;2023-05-20T09:09:54;95188.03;;;24.53;46.65
6132;BME280;3097;42.692;23.278;2023-05-20T09:12:20;95190.44;;;24.63;46.47
6132;BME280;3097;42.692;23.278;2023-05-20T09:14:45;95223.19;;;24.71;45.59
6132;BME280;3097;42.692;23.278;2023-05-20T09:17:11;95184.81;;;23.62;47.51
6132;BME280;3097;42.692;23.278;2023-05-20T09:19:37;95176.53;;;23.41;48.21
6132;BME280;3097;42.692;23.278;2023-05-20T09:22:03;95207.50;;;23.17;49.08
6132;BME280;3097;42.692;23.278;2023-05-20T09:24:29;95201.75;;;22.88;49.17
6132;BME280;3097;42.692;23.278;2023-05-20T09:26:55;95217.03;;;22.86;49.53
6132;BME280;3097;42.692;23.278;2023-05-20T09:29:22;95201.59;;;22.65;50.75
6132;BME280;3097;42.692;23.278;2023-05-20T09:31:48;95183.22;;;22.14;51.46
6132;BME280;3097;42.692;23.278;2023-05-20T09:34:16;95207.59;;;22.01;51.78
6132;BME280;3097;42.692;23.278;2023-05-20T09:36:43;95204.94;;;22.20;52.44
6132;BME280;3097;42.692;23.278;2023-05-20T09:39:24;95207.31;;;22.35;51.90
6132;BME280;3097;42.692;23.278;2023-05-20T09:42:24;95206.69;;;22.43;52.64
6132;BME280;3097;42.692;23.278;2023-05-20T09:44:41;95163.00;;;22.47;53.58
6132;BME280;3097;42.692;23.278;2023-05-20T09:47:09;95196.09;;;22.94;50.78
6132;BME280;3097;42.692;23.278;2023-05-20T09:49:36;95179.81;;;22.78;51.26
6132;BME280;3097;42.692;23.278;2023-05-20T09:52:03;95182.78;;;22.91;51.28
6132;BME280;3097;42.692;23.278;2023-05-20T09:54:29;95191.03;;;22.84;51.30
6132;BME280;3097;42.692;23.278;2023-05-20T09:56:58;95186.31;;;22.67;50.52
6132;BME280;3097;42.692;23.278;2023-05-20T09:59:26;95186.97;;;22.59;50.40
6132;BME280;3097;42.692;23.278;2023-05-20T10:01:52;95174.38;;;22.43;51.33
6132;BME280;3097;42.692;23.278;2023-05-20T10:04:18;95169.22;;;22.51;52.03
6132;BME280;3097;42.692;23.278;2023-05-20T10:12:40;95085.94;;;22.52;50.70
6132;BME280;3097;42.692;23.278;2023-05-20T10:15:26;95158.31;;;23.31;50.00
6132;BME280;3097;42.692;23.278;2023-05-20T10:18:09;95153.53;;;23.33;47.73
6132;BME280;3097;42.692;23.278;2023-05-20T10:20:47;95152.09;;;23.27;48.22
6132;BME280;3097;42.692;23.278;2023-05-20T10:23:39;95139.34;;;23.07;47.59
6132;BME280;3097;42.692;23.278;2023-05-20T10:26:05;95147.72;;;23.23;46.94
6132;BME280;3097;42.692;23.278;2023-05-20T10:28:33;95149.34;;;23.32;48.83
6132;BME280;3097;42.692;23.278;2023-05-20T10:31:00;95153.56;;;23.20;46.43
6132;BME280;3097;42.692;23.278;2023-05-20T10:33:26;95141.28;;;23.01;47.35
6132;BME280;3097;42.692;23.278;2023-05-20T10:35:53;95150.16;;;22.92;48.42
6132;BME280;3097;42.692;23.278;2023-05-20T10:38:19;95111.44;;;22.51;48.55
6132;BME280;3097;42.692;23.278;2023-05-20T10:40:46;95127.59;;;22.58;48.35
6132;BME280;3097;42.692;23.278;2023-05-20T10:43:25;95130.31;;;22.39;48.75
6132;BME280;3097;42.692;23.278;2023-05-20T10:45:54;95117.63;;;22.42;49.47
6132;BME280;3097;42.692;23.278;2023-05-20T10:48:31;95113.38;;;22.59;48.08
6132;BME280;3097;42.692;23.278;2023-05-20T10:50:58;95117.47;;;22.65;47.87
6132;BME280;3097;42.692;23.278;2023-05-20T10:53:26;95109.97;;;22.59;46.67
6132;BME280;3097;42.692;23.278;2023-05-20T10:55:53;95113.00;;;22.52;47.67
6132;BME280;3097;42.692;23.278;2023-05-20T10:58:22;95108.31;;;22.49;47.33
6132;BME280;3097;42.692;23.278;2023-05-20T11:00:50;95103.28;;;22.66;46.98
6132;BME280;3097;42.692;23.278;2023-05-20T11:03:16;95065.31;;;22.45;46.25
6132;BME280;3097;42.692;23.278;2023-05-20T11:05:44;95095.28;;;22.71;46.88
6132;BME280;3097;42.692;23.278;2023-05-20T11:08:11;95103.91;;;22.91;46.93
6132;BME280;3097;42.692;23.278;2023-05-20T11:10:36;95072.13;;;22.46;46.27
6132;BME280;3097;42.692;23.278;2023-05-20T11:13:03;95096.59;;;22.74;47.03
6132;BME280;3097;42.692;23.278;2023-05-20T11:15:30;95092.19;;;22.69;46.46
6132;BME280;3097;42.692;23.278;2023-05-20T11:18:00;95096.34;;;22.70;46.12
6132;BME280;3097;42.692;23.278;2023-05-20T11:20:26;95100.34;;;22.68;47.33
6132;BME280;3097;42.692;23.278;2023-05-20T11:22:52;95088.97;;;22.59;47.25
6132;BME280;3097;42.692;23.278;2023-05-20T11:25:19;95082.13;;;22.44;48.14
6132;BME280;3097;42.692;23.278;2023-05-20T11:27:45;95092.66;;;22.58;47.77
6132;BME280;3097;42.692;23.278;2023-05-20T11:30:12;95074.66;;;22.65;48.91
6132;BME280;3097;42.692;23.278;2023-05-20T11:32:43;95080.91;;;22.69;47.81
6132;BME280;3097;42.692;23.278;2023-05-20T11:35:21;95055.56;;;22.73;48.47
6132;BME280;3097;42.692;23.278;2023-05-20T11:37:56;95062.22;;;22.98;48.54
6132;BME280;3097;42.692;23.278;2023-05-20T11:40:26;95052.25;;;23.08;46.51
6132;BME280;3097;42.692;23.278;2023-05-20T11:42:55;95030.75;;;22.65;48.17
6132;BME280;3097;42.692;23.278;2023-05-20T11:45:22;95045.66;;;22.70;49.35
6132;BME280;3097;42.692;23.278;2023-05-20T11:48:03;95068.81;;;22.68;49.12
6132;BME280;3097;42.692;23.278;2023-05-20T11:50:37;95056.91;;;22.43;48.76
6132;BME280;3097;42.692;23.278;2023-05-20T11:53:06;95060.34;;;22.44;49.28
6132;BME280;3097;42.692;23.278;2023-05-20T11:55:32;95043.69;;;22.48;49.64
6132;BME280;3097;42.692;23.278;2023-05-20T11:57:59;95051.09;;;22.60;50.09
6132;BME280;3097;42.692;23.278;2023-05-20T12:00:25;95047.59;;;22.64;49.72
6132;BME280;3097;42.692;23.278;2023-05-20T12:02:50;95044.28;;;22.59;50.01
6132;BME280;3097;42.692;23.278;2023-05-20T12:05:16;95011.88;;;22.22;50.17
6132;BME280;3097;42.692;23.278;2023-05-20T12:07:42;95013.03;;;22.03;50.57
6132;BME280;3097;42.692;23.278;2023-05-20T12:10:08;95032.00;;;22.27;50.01
6132;BME280;3097;42.692;23.278;2023-05-20T12:12:34;95023.25;;;22.31;50.35
6132;BME280;3097;42.692;23.278;2023-05-20T12:15:02;95024.44;;;22.39;51.59
6132;BME280;3097;42.692;23.278;2023-05-20T12:17:27;95031.81;;;22.37;49.88
6132;BME280;3097;42.692;23.278;2023-05-20T12:19:53;95030.38;;;22.31;50.00
6132;BME280;3097;42.692;23.278;2023-05-20T12:22:18;95037.97;;;22.32;50.09
6132;BME280;3097;42.692;23.278;2023-05-20T12:24:44;95025.88;;;21.85;50.41
6132;BME280;3097;42.692;23.278;2023-05-20T12:27:09;95039.19;;;21.56;50.71
6132;BME280;3097;42.692;23.278;2023-05-20T12:29:35;95037.25;;;21.62;50.71
6132;BME280;3097;42.692;23.278;2023-05-20T12:32:01;95028.69;;;21.56;51.01
6132;BME280;3097;42.692;23.278;2023-05-20T12:34:26;95049.88;;;21.60;51.89
6132;BME280;3097;42.692;23.278;2023-05-20T12:36:52;95056.78;;;21.56;48.30
6132;BME280;3097;42.692;23.278;2023-05-20T12:39:17;95069.47;;;21.49;47.78
6132;BME280;3097;42.692;23.278;2023-05-20T12:41:43;95064.72;;;21.32;49.47
6132;BME280;3097;42.692;23.278;2023-05-20T12:44:09;95065.09;;;21.26;50.63
6132;BME280;3097;42.692;23.278;2023-05-20T12:46:35;95067.19;;;21.23;51.19
6132;BME280;3097;42.692;23.278;2023-05-20T12:49:01;95062.19;;;21.27;50.45
6132;BME280;3097;42.692;23.278;2023-05-20T12:51:27;95079.16;;;21.11;46.37
6132;BME280;3097;42.692;23.278;2023-05-20T12:53:52;95079.28;;;20.77;47.21
6132;BME280;3097;42.692;23.278;2023-05-20T12:56:19;95078.84;;;20.70;47.43
6132;BME280;3097;42.692;23.278;2023-05-20T12:58:45;95077.78;;;20.47;48.44
6132;BME280;3097;42.692;23.278;2023-05-20T13:01:10;95072.88;;;20.40;48.88
6132;BME280;3097;42.692;23.278;2023-05-20T13:03:36;95072.34;;;20.38;49.28
6132;BME280;3097;42.692;23.278;2023-05-20T13:06:01;95067.41;;;20.32;49.96
6132;BME280;3097;42.692;23.278;2023-05-20T13:08:28;95064.28;;;20.30;50.08
6132;BME280;3097;42.692;23.278;2023-05-20T13:10:53;95061.41;;;20.31;50.88
6132;BME280;3097;42.692;23.278;2023-05-20T13:13:18;95059.22;;;20.43;51.46